createdAt,value
2022-12-08T00:01:58.180Z,75.02
2022-12-08T00:04:24.703Z,75.09
2022-12-08T00:06:51.788Z,74.61
2022-12-08T00:09:18.233Z,74.22
2022-12-08T00:11:45.840Z,74.01
2022-12-08T00:14:12.539Z,74.36
2022-12-08T00:16:38.964Z,74.42
2022-12-08T00:19:07.484Z,73.81
2022-12-08T00:21:33.820Z,73.47
2022-12-08T00:24:01.119Z,73.89
2022-12-08T00:26:27.595Z,73.60
2022-12-08T00:28:54.048Z,73.25
2022-12-08T00:31:20.492Z,73.38
2022-12-08T00:33:46.962Z,73.74
2022-12-08T00:36:13.341Z,73.65
2022-12-08T00:38:40.033Z,73.41
2022-12-08T00:41:07.456Z,73.73
2022-12-08T00:43:34.107Z,74.23
2022-12-08T00:46:00.820Z,74.08
2022-12-08T00:48:27.209Z,74.47
2022-12-08T00:50:53.659Z,73.66
2022-12-08T00:53:22.570Z,73.84
2022-12-08T00:55:49.237Z,73.30
2022-12-08T00:58:15.642Z,73.27
2022-12-08T01:00:42.411Z,73.14
2022-12-08T01:03:09.055Z,72.70
2022-12-08T01:05:35.474Z,72.42
2022-12-08T01:08:01.949Z,72.60
2022-12-08T01:10:28.487Z,72.62
2022-12-08T01:12:55.437Z,72.68
2022-12-08T01:15:21.828Z,72.76
2022-12-08T01:17:54.444Z,72.58
2022-12-08T01:20:21.170Z,72.80
2022-12-08T01:22:47.557Z,72.58
2022-12-08T01:25:14.278Z,72.48
2022-12-08T01:27:40.751Z,72.45
2022-12-08T01:30:07.829Z,71.96
2022-12-08T01:32:34.174Z,72.77
2022-12-08T01:35:00.715Z,73.34
2022-12-08T01:37:28.197Z,73.95
2022-12-08T01:39:55.474Z,74.12
2022-12-08T01:42:22.118Z,74.63
2022-12-08T01:44:48.507Z,74.28
2022-12-08T01:47:15.204Z,74.13
2022-12-08T01:49:41.765Z,74.44
2022-12-08T01:52:08.128Z,73.84
2022-12-08T01:54:37.004Z,73.65
2022-12-08T01:57:03.677Z,73.90
2022-12-08T01:59:30.144Z,74.26
2022-12-08T02:01:56.608Z,74.18
2022-12-08T02:04:23.374Z,73.66
2022-12-08T02:06:50.037Z,74.12
2022-12-08T02:09:16.727Z,74.02
2022-12-08T02:11:44.375Z,73.79
2022-12-08T02:14:10.751Z,73.95
2022-12-08T02:16:38.167Z,73.44
2022-12-08T02:19:30.356Z,73.69
2022-12-08T02:21:52.958Z,73.84
2022-12-08T02:24:19.293Z,74.18
2022-12-08T02:26:45.756Z,74.25
2022-12-08T02:29:12.094Z,71.66
2022-12-08T02:31:38.426Z,73.48
2022-12-08T02:34:05.843Z,72.32
2022-12-08T02:36:33.218Z,73.45
2022-12-08T02:38:59.750Z,74.24
2022-12-08T02:41:28.246Z,73.75
2022-12-08T02:43:54.738Z,73.00
2022-12-08T02:46:21.353Z,71.78
2022-12-08T02:48:48.057Z,71.44
2022-12-08T02:51:16.599Z,71.29
2022-12-08T02:53:43.135Z,72.75
2022-12-08T02:56:09.615Z,72.68
2022-12-08T02:58:35.997Z,73.43
2022-12-08T03:01:02.410Z,73.53
2022-12-08T03:03:30.132Z,73.18
2022-12-08T03:05:56.571Z,72.99
2022-12-08T03:08:23.116Z,73.75
2022-12-08T03:10:51.857Z,74.09
2022-12-08T03:13:18.782Z,74.08
2022-12-08T03:15:46.356Z,73.54
2022-12-08T03:18:12.803Z,73.32
2022-12-08T03:20:39.141Z,73.31
2022-12-08T03:23:05.693Z,72.82
2022-12-08T03:25:32.193Z,72.86
2022-12-08T03:27:59.611Z,72.55
2022-12-08T03:30:26.075Z,72.72
2022-12-08T03:32:52.811Z,71.41
2022-12-08T03:35:19.314Z,71.43
2022-12-08T03:37:45.913Z,70.82
2022-12-08T03:40:12.308Z,71.28
2022-12-08T03:42:38.715Z,71.94
2022-12-08T03:45:05.103Z,71.69
2022-12-08T03:47:33.984Z,71.95
2022-12-08T03:50:01.396Z,72.22
2022-12-08T03:52:28.202Z,72.91
2022-12-08T03:54:54.578Z,72.80
2022-12-08T03:57:20.957Z,73.11
2022-12-08T04:02:27.604Z,73.56
2022-12-08T04:04:53.986Z,72.81
2022-12-08T04:07:20.401Z,72.75
2022-12-08T04:09:46.817Z,72.41
2022-12-08T04:12:15.210Z,69.14
2022-12-08T04:14:41.543Z,69.38
2022-12-08T04:17:08.098Z,69.05
2022-12-08T04:19:34.501Z,69.54
2022-12-08T04:22:00.901Z,68.34
2022-12-08T04:24:27.300Z,68.46
2022-12-08T04:26:54.713Z,68.18
2022-12-08T04:29:21.213Z,68.29
2022-12-08T04:31:47.643Z,68.99
2022-12-08T04:34:14.095Z,68.62
2022-12-08T04:36:40.473Z,69.24
2022-12-08T04:39:06.869Z,70.06
2022-12-08T04:41:33.508Z,71.52
2022-12-08T04:43:59.900Z,71.71
2022-12-08T04:46:26.304Z,71.50
2022-12-08T04:48:53.721Z,70.79
2022-12-08T04:51:20.438Z,70.72
2022-12-08T04:53:47.208Z,71.65
2022-12-08T04:56:13.654Z,70.36
2022-12-08T04:58:41.127Z,71.11
2022-12-08T05:01:07.489Z,72.06
2022-12-08T05:03:34.139Z,69.62
2022-12-08T05:06:03.050Z,69.21
2022-12-08T05:08:29.690Z,68.58
2022-12-08T05:10:56.642Z,68.74
2022-12-08T05:13:23.025Z,70.98
2022-12-08T05:15:49.471Z,72.78
2022-12-08T05:18:17.392Z,72.65
2022-12-08T05:20:43.942Z,73.26
2022-12-08T05:23:10.649Z,73.04
2022-12-08T05:25:39.282Z,72.49
2022-12-08T05:28:32.838Z,72.24
2022-12-08T05:30:52.557Z,71.13
2022-12-08T05:33:18.937Z,70.29
2022-12-08T05:35:47.856Z,69.92
2022-12-08T05:38:14.225Z,71.70
2022-12-08T05:40:42.181Z,72.02
2022-12-08T05:43:08.619Z,71.83
2022-12-08T05:45:35.140Z,72.08
2022-12-08T05:48:02.726Z,72.14
2022-12-08T05:50:29.095Z,72.10
2022-12-08T05:52:56.232Z,71.79
2022-12-08T05:55:22.613Z,71.32
2022-12-08T05:57:48.995Z,71.66
2022-12-08T06:00:15.491Z,71.62
2022-12-08T06:02:43.238Z,71.02
2022-12-08T06:05:10.100Z,71.24
2022-12-08T06:07:37.912Z,71.44
2022-12-08T06:10:04.584Z,71.64
2022-12-08T06:12:31.361Z,72.40
2022-12-08T06:14:57.751Z,71.90
2022-12-08T06:17:24.387Z,71.55
2022-12-08T06:19:52.437Z,71.62
2022-12-08T06:22:18.881Z,72.00
2022-12-08T06:24:45.264Z,71.88
2022-12-08T06:27:11.636Z,72.60
2022-12-08T06:29:37.970Z,71.96
2022-12-08T06:32:04.424Z,72.39
2022-12-08T06:34:30.859Z,71.83
2022-12-08T06:36:57.351Z,72.02
2022-12-08T06:39:23.736Z,72.31
2022-12-08T06:41:51.251Z,72.33
2022-12-08T06:44:18.556Z,71.96
2022-12-08T06:46:45.174Z,72.38
2022-12-08T06:49:11.545Z,72.39
2022-12-08T06:51:37.920Z,71.97
2022-12-08T06:54:04.719Z,72.73
2022-12-08T06:56:31.259Z,72.62
2022-12-08T06:58:57.706Z,72.84
2022-12-08T07:01:24.175Z,73.22
2022-12-08T07:03:50.601Z,73.46
2022-12-08T07:06:17.037Z,73.67
2022-12-08T07:08:43.413Z,73.28
2022-12-08T07:11:10.021Z,72.47
2022-12-08T07:13:36.367Z,72.13
2022-12-08T07:16:02.704Z,71.87
2022-12-08T07:18:29.103Z,72.30
2022-12-08T07:20:56.426Z,71.88
2022-12-08T07:23:22.870Z,71.60
2022-12-08T07:25:49.254Z,70.84
2022-12-08T07:28:15.714Z,69.38
2022-12-08T07:30:42.571Z,68.66
2022-12-08T07:33:09.340Z,68.21
2022-12-08T07:35:35.718Z,67.50
2022-12-08T07:38:02.166Z,67.45
2022-12-08T07:40:28.530Z,67.29
2022-12-08T07:42:55.097Z,66.72
2022-12-08T07:45:29.872Z,65.78
2022-12-08T07:47:58.322Z,65.58
2022-12-08T07:50:25.888Z,65.52
2022-12-08T07:52:52.333Z,65.78
2022-12-08T07:55:19.001Z,66.11
2022-12-08T07:57:45.409Z,66.50
2022-12-08T08:00:11.796Z,66.98
2022-12-08T08:02:38.647Z,69.36
2022-12-08T08:05:05.336Z,70.04
2022-12-08T08:07:34.575Z,70.35
2022-12-08T08:10:01.066Z,69.38
2022-12-08T08:12:32.077Z,68.53
2022-12-08T08:14:59.267Z,68.33
2022-12-08T08:17:25.923Z,68.53
2022-12-08T08:19:52.538Z,68.74
2022-12-08T08:22:18.918Z,68.26
2022-12-08T08:24:45.660Z,67.31
2022-12-08T08:27:12.358Z,68.01
2022-12-08T08:29:39.741Z,68.16
2022-12-08T08:32:06.320Z,67.34
2022-12-08T08:34:32.817Z,67.66
2022-12-08T08:36:59.377Z,67.30
2022-12-08T08:39:25.808Z,67.92
2022-12-08T08:41:52.433Z,68.25
2022-12-08T08:44:19.365Z,67.27
2022-12-08T08:46:46.369Z,66.88
2022-12-08T08:49:12.898Z,67.91
2022-12-08T08:51:41.434Z,66.59
2022-12-08T08:54:07.905Z,66.22
2022-12-08T08:56:34.592Z,66.23
2022-12-08T08:59:01.067Z,65.63
2022-12-08T09:01:27.539Z,64.61
2022-12-08T09:03:53.959Z,64.94
2022-12-08T09:06:20.416Z,65.57
2022-12-08T09:08:47.553Z,64.55
2022-12-08T09:11:15.214Z,65.03
2022-12-08T09:13:41.552Z,65.17
2022-12-08T09:16:08.335Z,66.64
2022-12-08T09:18:34.795Z,65.73
2022-12-08T09:21:01.602Z,65.96
2022-12-08T09:23:35.074Z,66.38
2022-12-08T09:26:02.348Z,63.98
2022-12-08T09:28:28.765Z,65.05
2022-12-08T09:30:57.085Z,64.09
2022-12-08T09:33:23.707Z,63.09
2022-12-08T09:35:50.111Z,62.29
2022-12-08T09:38:16.491Z,62.11
2022-12-08T09:40:42.841Z,61.99
2022-12-08T09:43:09.395Z,61.98
2022-12-08T09:45:35.894Z,62.22
2022-12-08T09:48:02.894Z,62.84
2022-12-08T09:50:29.302Z,61.51
2022-12-08T09:52:55.742Z,61.56
2022-12-08T09:55:22.437Z,61.66
2022-12-08T09:57:53.059Z,61.86
2022-12-08T10:00:22.708Z,62.65
2022-12-08T10:02:49.337Z,62.30
2022-12-08T10:05:16.514Z,62.52
2022-12-08T10:07:43.203Z,61.54
2022-12-08T10:10:12.760Z,61.86
2022-12-08T10:12:39.512Z,60.97
2022-12-08T10:15:06.967Z,59.15
2022-12-08T10:17:33.340Z,59.52
2022-12-08T10:20:00.305Z,59.28
2022-12-08T10:22:26.687Z,60.17
2022-12-08T10:24:53.390Z,58.21
2022-12-08T10:27:22.637Z,57.35
2022-12-08T10:29:49.137Z,56.88
2022-12-08T10:32:16.631Z,56.86
2022-12-08T10:34:43.434Z,54.81
2022-12-08T10:37:10.304Z,57.43
2022-12-08T10:39:36.791Z,55.36
2022-12-08T10:42:03.345Z,55.87
2022-12-08T10:44:29.791Z,55.92
2022-12-08T10:46:56.592Z,56.43
2022-12-08T10:49:23.247Z,54.34
2022-12-08T10:51:49.942Z,55.51
2022-12-08T10:54:20.559Z,55.06
2022-12-08T10:56:48.465Z,54.74
2022-12-08T10:59:15.327Z,56.05
2022-12-08T11:01:41.953Z,55.37
2022-12-08T11:04:08.462Z,54.67
2022-12-08T11:06:37.203Z,54.04
2022-12-08T11:09:04.067Z,54.02
2022-12-08T11:11:30.569Z,52.73
2022-12-08T11:13:56.953Z,54.02
2022-12-08T11:16:23.561Z,52.80
2022-12-08T11:18:50.362Z,53.66
2022-12-08T11:21:16.841Z,54.89
2022-12-08T11:23:43.483Z,57.04
2022-12-08T11:26:09.909Z,57.12
2022-12-08T11:28:36.354Z,57.16
2022-12-08T11:31:03.367Z,55.25
2022-12-08T11:33:30.196Z,54.66
2022-12-08T11:35:59.153Z,54.70
2022-12-08T11:38:25.594Z,54.68
2022-12-08T11:40:52.120Z,56.07
2022-12-08T11:43:18.863Z,55.70
2022-12-08T11:45:45.355Z,55.35
2022-12-08T11:48:12.197Z,55.56
2022-12-08T11:50:39.406Z,54.61
2022-12-08T11:53:05.847Z,55.74
2022-12-08T11:55:37.331Z,54.34
2022-12-08T11:58:05.906Z,54.96
2022-12-08T12:00:32.490Z,56.01
2022-12-08T12:02:58.921Z,56.03
2022-12-08T12:05:39.822Z,55.57
2022-12-08T12:08:11.734Z,54.02
2022-12-08T12:10:38.353Z,55.02
2022-12-08T12:13:04.696Z,55.45
2022-12-08T12:15:32.255Z,56.48
2022-12-08T12:17:58.703Z,55.78
2022-12-08T12:20:25.339Z,55.65
2022-12-08T12:22:51.773Z,53.69
2022-12-08T12:25:18.240Z,55.40
2022-12-08T12:27:44.941Z,54.92
2022-12-08T12:30:11.521Z,56.31
2022-12-08T12:32:37.902Z,55.94
2022-12-08T12:35:04.896Z,55.57
2022-12-08T12:37:33.483Z,56.00
2022-12-08T12:40:02.144Z,54.27
2022-12-08T12:42:28.611Z,55.85
2022-12-08T12:44:56.086Z,54.87
2022-12-08T12:47:22.479Z,57.68
2022-12-08T12:49:49.166Z,57.27
2022-12-08T12:52:15.543Z,57.04
2022-12-08T12:54:41.955Z,55.02
2022-12-08T12:57:08.738Z,55.41
2022-12-08T12:59:35.124Z,54.95
2022-12-08T13:02:01.554Z,54.73
2022-12-08T13:04:28.075Z,53.95
2022-12-08T13:06:54.480Z,56.96
2022-12-08T13:09:23.424Z,55.33
2022-12-08T13:11:49.797Z,56.02
2022-12-08T13:14:23.485Z,55.90
2022-12-08T13:16:50.728Z,54.63
2022-12-08T13:19:17.117Z,54.92
2022-12-08T13:21:43.456Z,55.74
2022-12-08T13:24:10.294Z,55.94
2022-12-08T13:26:36.653Z,55.65
2022-12-08T13:29:03.130Z,55.17
2022-12-08T13:31:30.449Z,54.93
2022-12-08T13:33:57.018Z,54.38
2022-12-08T13:36:23.466Z,54.88
2022-12-08T13:38:49.838Z,54.04
2022-12-08T13:41:16.610Z,53.88
2022-12-08T13:43:55.499Z,53.65
2022-12-08T13:55:49.520Z,54.19
2022-12-08T13:57:35.103Z,55.11
2022-12-08T14:00:01.745Z,55.85
2022-12-08T14:02:31.335Z,53.01
2022-12-08T14:07:44.206Z,54.24
2022-12-08T14:10:10.838Z,55.68
2022-12-08T14:12:38.228Z,55.76
2022-12-08T14:15:05.004Z,56.16
2022-12-08T14:17:31.580Z,56.56
2022-12-08T14:19:58.165Z,57.78
2022-12-08T14:22:24.849Z,57.29
2022-12-08T14:24:51.525Z,57.78
2022-12-08T14:27:18.308Z,57.85
2022-12-08T14:29:44.815Z,56.58
2022-12-08T14:32:11.502Z,57.11
2022-12-08T14:34:38.022Z,57.04
2022-12-08T14:37:04.825Z,56.55
2022-12-08T14:39:32.225Z,56.52
2022-12-08T14:41:58.592Z,55.97
2022-12-08T14:44:28.098Z,55.53
2022-12-08T14:46:54.762Z,56.80
2022-12-08T14:49:21.208Z,57.89
2022-12-08T14:51:47.738Z,56.83
2022-12-08T14:54:14.227Z,58.25
2022-12-08T14:56:43.142Z,59.27
2022-12-08T14:59:09.610Z,59.79
2022-12-08T15:01:36.408Z,60.94
2022-12-08T15:04:02.888Z,61.15
2022-12-08T15:06:29.317Z,61.72
2022-12-08T15:08:55.724Z,61.80
2022-12-08T15:11:22.181Z,62.52
2022-12-08T15:13:48.802Z,63.31
2022-12-08T15:16:15.228Z,62.91
2022-12-08T15:18:41.603Z,63.33
2022-12-08T15:21:07.983Z,63.65
2022-12-08T15:23:34.890Z,63.94
2022-12-08T15:26:01.694Z,63.69
2022-12-08T15:28:29.960Z,64.06
2022-12-08T15:30:57.118Z,64.00
2022-12-08T15:33:23.592Z,64.50
2022-12-08T15:35:50.194Z,64.69
2022-12-08T15:38:16.734Z,64.95
2022-12-08T15:40:43.105Z,65.19
2022-12-08T15:43:09.529Z,65.26
2022-12-08T15:45:36.063Z,65.39
2022-12-08T15:48:02.482Z,65.41
2022-12-08T15:50:28.970Z,66.08
2022-12-08T15:52:55.356Z,66.17
2022-12-08T15:55:21.857Z,66.71
2022-12-08T16:00:52.839Z,66.64
2022-12-08T16:03:59.409Z,67.11
2022-12-08T16:09:06.266Z,68.19
2022-12-08T16:12:05.383Z,68.01
2022-12-08T16:15:30.328Z,68.06
2022-12-08T16:17:11.436Z,69.15
2022-12-08T16:19:37.858Z,69.33
2022-12-08T16:22:51.337Z,69.21
2022-12-08T16:24:50.658Z,69.58
2022-12-08T16:30:03.512Z,69.87
2022-12-08T16:32:29.939Z,70.45
2022-12-08T16:34:56.621Z,70.62
2022-12-08T16:37:23.265Z,70.78
2022-12-08T16:39:49.691Z,70.40
2022-12-08T16:42:16.129Z,70.53
2022-12-08T16:44:42.893Z,70.97
2022-12-08T16:47:09.237Z,70.91
2022-12-08T16:49:35.633Z,70.81
2022-12-08T16:52:02.121Z,70.46
2022-12-08T16:54:28.490Z,70.45
2022-12-08T16:56:55.043Z,70.66
2022-12-08T16:59:23.497Z,70.40
2022-12-08T17:01:49.837Z,70.62
2022-12-08T17:04:31.319Z,71.01
2022-12-08T17:06:57.990Z,70.94
2022-12-08T17:09:24.383Z,71.14
2022-12-08T17:11:50.937Z,71.30
2022-12-08T17:14:17.259Z,70.81
2022-12-08T17:16:43.694Z,70.93
2022-12-08T17:19:10.082Z,70.64
2022-12-08T17:21:36.414Z,70.73
2022-12-08T17:24:02.817Z,71.27
2022-12-08T17:26:29.347Z,70.60
2022-12-08T17:29:02.743Z,70.73
2022-12-08T17:31:30.524Z,70.83
2022-12-08T17:33:58.367Z,70.70
2022-12-08T17:36:24.752Z,70.61
2022-12-08T17:38:51.303Z,70.79
2022-12-08T17:41:17.704Z,70.47
2022-12-08T17:43:46.435Z,70.74
2022-12-08T17:46:13.223Z,70.67
2022-12-08T17:48:40.469Z,70.69
2022-12-08T17:51:06.814Z,70.68
2022-12-08T17:53:37.369Z,70.95
2022-12-08T17:56:04.073Z,71.41
2022-12-08T17:58:30.440Z,71.23
2022-12-08T18:00:59.127Z,71.58
2022-12-08T18:03:25.488Z,71.70
2022-12-08T18:05:51.946Z,72.16
2022-12-08T18:08:18.368Z,72.67
2022-12-08T18:10:44.858Z,72.36
2022-12-08T18:13:11.432Z,72.38
2022-12-08T18:15:39.438Z,72.36
2022-12-08T18:18:05.897Z,73.05
2022-12-08T18:20:32.327Z,73.35
2022-12-08T18:22:58.695Z,72.96
2022-12-08T18:25:25.713Z,72.76
2022-12-08T18:27:52.086Z,72.79
2022-12-08T18:30:18.657Z,72.83
2022-12-08T18:32:45.276Z,73.20
2022-12-08T18:35:11.772Z,73.07
2022-12-08T18:37:39.381Z,73.32
2022-12-08T18:40:06.103Z,73.21
2022-12-08T18:42:32.753Z,72.56
2022-12-08T18:44:59.323Z,72.16
2022-12-08T18:47:25.928Z,72.54
2022-12-08T18:49:52.367Z,72.65
2022-12-08T18:52:25.953Z,73.06
2022-12-08T18:55:06.227Z,72.99
2022-12-08T18:57:33.459Z,72.79
2022-12-08T19:00:00.436Z,72.58
2022-12-08T19:02:26.872Z,72.81
2022-12-08T19:04:55.856Z,72.87
2022-12-08T19:07:22.236Z,72.47
2022-12-08T19:09:49.566Z,72.38
2022-12-08T19:12:16.075Z,72.23
2022-12-08T19:14:42.764Z,72.01
2022-12-08T19:17:09.574Z,72.12
2022-12-08T19:19:36.130Z,71.96
2022-12-08T19:22:02.526Z,71.90
2022-12-08T19:24:29.129Z,71.88
2022-12-08T19:26:55.602Z,71.98
2022-12-08T19:29:21.986Z,72.04
2022-12-08T19:31:48.596Z,71.98
2022-12-08T19:34:15.360Z,72.04
2022-12-08T19:36:41.760Z,71.72
2022-12-08T19:39:08.451Z,71.66
2022-12-08T19:41:35.024Z,71.81
2022-12-08T19:44:02.505Z,72.82
2022-12-08T19:46:29.041Z,72.42
2022-12-08T19:48:55.554Z,72.56
2022-12-08T19:51:21.918Z,72.74
2022-12-08T19:53:48.303Z,72.87
2022-12-08T19:56:14.745Z,73.14
2022-12-08T19:58:41.095Z,73.09
2022-12-08T20:01:07.712Z,73.20
2022-12-08T20:03:34.628Z,73.87
2022-12-08T20:06:01.382Z,73.16
2022-12-08T20:08:27.936Z,72.37
2022-12-08T20:10:54.540Z,72.06
2022-12-08T20:13:21.048Z,72.76
2022-12-08T20:15:47.709Z,72.60
2022-12-08T20:18:14.167Z,72.91
2022-12-08T20:20:40.639Z,73.10
2022-12-08T20:23:08.594Z,73.29
2022-12-08T20:25:34.997Z,73.58
2022-12-08T20:28:01.477Z,73.77
2022-12-08T20:30:27.877Z,74.17
2022-12-08T20:32:54.236Z,73.63
2022-12-08T20:35:20.863Z,73.14
2022-12-08T20:37:47.270Z,72.75
2022-12-08T20:40:13.951Z,73.14
2022-12-08T20:42:40.334Z,73.29
2022-12-08T20:45:07.976Z,72.74
2022-12-08T20:47:36.741Z,73.21
2022-12-08T20:50:03.626Z,73.18
2022-12-08T20:52:30.435Z,73.02
2022-12-08T20:54:56.818Z,73.01
2022-12-08T20:57:23.592Z,73.23
2022-12-08T20:59:53.134Z,73.63
2022-12-08T21:02:21.130Z,74.31
2022-12-08T21:04:47.685Z,74.18
2022-12-08T21:07:15.295Z,74.14
2022-12-08T21:12:23.704Z,73.39
2022-12-08T21:14:50.251Z,73.07
2022-12-08T21:17:16.934Z,73.65
2022-12-08T21:19:44.825Z,73.44
2022-12-08T21:22:11.397Z,74.08
2022-12-08T21:24:39.861Z,74.09
2022-12-08T21:27:06.394Z,73.73
2022-12-08T21:29:33.353Z,74.18
2022-12-08T21:32:00.090Z,74.39
2022-12-08T21:34:27.853Z,74.48
2022-12-08T21:36:54.431Z,74.69
2022-12-08T21:39:21.072Z,74.82
2022-12-08T21:41:47.473Z,74.50
2022-12-08T21:44:14.081Z,74.39
2022-12-08T21:46:41.066Z,74.08
2022-12-08T21:49:07.532Z,73.66
2022-12-08T21:51:34.497Z,73.44
2022-12-08T21:54:01.122Z,73.26
2022-12-08T21:56:27.861Z,73.20
2022-12-08T21:58:54.374Z,73.58
2022-12-08T22:01:21.019Z,74.83
2022-12-08T22:03:48.849Z,74.95
2022-12-08T22:06:15.505Z,74.70
2022-12-08T22:08:42.249Z,74.93
2022-12-08T22:11:09.083Z,75.08
2022-12-08T22:13:35.686Z,75.31
2022-12-08T22:16:02.262Z,75.58
2022-12-08T22:18:30.348Z,75.14
2022-12-08T22:20:56.869Z,75.10
2022-12-08T22:23:23.641Z,75.29
2022-12-08T22:25:50.281Z,74.60
2022-12-08T22:28:16.691Z,74.87
2022-12-08T22:30:43.183Z,75.37
2022-12-08T22:33:09.959Z,75.35
2022-12-08T22:35:36.701Z,75.48
2022-12-08T22:38:03.344Z,75.75
2022-12-08T22:40:29.758Z,75.57
2022-12-08T22:42:56.238Z,75.44
2022-12-08T22:45:22.759Z,75.18
2022-12-08T22:47:49.670Z,75.05
2022-12-08T22:50:16.115Z,74.09
2022-12-08T22:52:42.660Z,74.23
2022-12-08T22:55:09.373Z,74.97
2022-12-08T22:57:35.989Z,75.11
2022-12-08T23:00:02.743Z,75.28
2022-12-08T23:02:29.326Z,75.57
2022-12-08T23:04:55.978Z,75.39
2022-12-08T23:07:23.363Z,75.19
2022-12-08T23:09:49.809Z,75.19
2022-12-08T23:12:16.213Z,75.28
2022-12-08T23:14:42.790Z,75.13
2022-12-08T23:17:09.313Z,75.09
2022-12-08T23:19:35.858Z,75.11
2022-12-08T23:22:02.450Z,74.97
2022-12-08T23:24:28.806Z,75.30
2022-12-08T23:26:55.819Z,75.36
2022-12-08T23:29:24.747Z,75.69
2022-12-08T23:31:51.228Z,75.80
2022-12-08T23:34:17.938Z,75.79
2022-12-08T23:36:44.444Z,76.04
2022-12-08T23:39:10.893Z,76.10
2022-12-08T23:41:37.467Z,76.22
2022-12-08T23:44:03.911Z,76.25
2022-12-08T23:46:30.925Z,76.16
2022-12-08T23:48:57.584Z,76.24
2022-12-08T23:51:24.114Z,76.01
2022-12-08T23:53:50.467Z,76.10
2022-12-08T23:56:16.876Z,76.53
2022-12-08T23:58:43.647Z,76.78
